Time;durP1;ratioP1;P1;durP2;ratioP2;P2;SDS_P1;SDS_P2;PMS_P1;PMS_P2;Temp;Humidity;BMP_temperature;BMP_pressure;BME280_temperature;BME280_humidity;BME280_pressure;Samples;Min_cycle;Max_cycle;Signal;HPM_P1;HPM_P2
2022/01/08 00:00:50;;;;;;;7.43;6.60;;;3.40;99.90;;;;;;5058884;28;20039;-51
2022/01/08 00:03:36;;;;;;;11.95;8.70;;;3.50;99.90;;;;;;5052794;28;20520;-49
2022/01/08 00:06:20;;;;;;;9.18;6.93;;;3.50;99.90;;;;;;5051805;28;20043;-51
2022/01/08 00:09:04;;;;;;;8.30;6.95;;;3.50;99.90;;;;;;5049435;28;20124;-49
2022/01/08 00:11:48;;;;;;;8.90;7.05;;;3.50;99.90;;;;;;5050966;28;20124;-54
2022/01/08 00:14:33;;;;;;;11.40;10.20;;;3.50;99.90;;;;;;5050973;28;20079;-48
2022/01/08 00:17:16;;;;;;;8.57;7.72;;;3.50;99.90;;;;;;5046267;28;20270;-54
2022/01/08 00:20:01;;;;;;;17.58;12.43;;;3.50;99.90;;;;;;5047944;28;20149;-51
2022/01/08 00:22:49;;;;;;;7.88;6.50;;;3.50;99.90;;;;;;5041104;28;20042;-50
2022/01/08 00:25:33;;;;;;;6.57;5.72;;;3.50;99.90;;;;;;5053215;28;20404;-51
2022/01/08 00:28:18;;;;;;;7.63;6.82;;;3.40;99.90;;;;;;5041424;28;20056;-48
2022/01/08 00:31:03;;;;;;;7.78;6.57;;;3.50;99.90;;;;;;5053074;28;20100;-52
2022/01/08 00:33:48;;;;;;;6.93;5.60;;;3.40;99.90;;;;;;5053404;28;20099;-48
2022/01/08 00:36:32;;;;;;;6.72;5.78;;;3.40;99.90;;;;;;5052661;28;20039;-54
2022/01/08 00:39:16;;;;;;;6.25;5.65;;;3.40;99.90;;;;;;5057400;28;20122;-52
2022/01/08 00:42:01;;;;;;;7.35;6.15;;;3.40;99.90;;;;;;5055577;28;20044;-51
2022/01/08 00:44:45;;;;;;;7.55;6.25;;;3.40;99.90;;;;;;5056970;28;20039;-54
2022/01/08 00:47:29;;;;;;;6.07;5.30;;;3.30;99.90;;;;;;5056680;28;20036;-54
2022/01/08 00:50:13;;;;;;;6.25;5.45;;;3.30;99.90;;;;;;5047157;28;20036;-56
2022/01/08 00:52:58;;;;;;;6.40;5.28;;;3.30;99.90;;;;;;5055929;28;20550;-51
2022/01/08 00:55:42;;;;;;;6.88;5.32;;;3.20;99.90;;;;;;5051880;28;20076;-50
2022/01/08 00:58:27;;;;;;;6.88;4.80;;;3.30;99.90;;;;;;5048359;28;20496;-53
2022/01/08 01:01:11;;;;;;;5.90;4.95;;;3.10;99.90;;;;;;5053433;28;20202;-53
2022/01/08 01:03:55;;;;;;;6.30;4.80;;;3.10;99.90;;;;;;5053961;28;20059;-49
2022/01/08 01:06:39;;;;;;;5.63;5.03;;;3.00;99.90;;;;;;5037096;28;20159;-47
2022/01/08 01:09:24;;;;;;;6.30;5.32;;;3.00;99.90;;;;;;5052923;28;20459;-55
2022/01/08 01:12:08;;;;;;;6.13;5.05;;;3.10;99.90;;;;;;5042576;28;20396;-49
2022/01/08 01:14:52;;;;;;;7.35;5.13;;;3.00;99.90;;;;;;5055993;28;20108;-49
2022/01/08 01:17:37;;;;;;;6.63;5.22;;;3.00;99.90;;;;;;5056082;28;20128;-50
2022/01/08 01:20:22;;;;;;;5.43;4.93;;;3.00;99.90;;;;;;5055852;28;20102;-50
2022/01/08 01:23:17;;;;;;;5.50;4.97;;;3.00;99.90;;;;;;5053548;28;20227;-51
2022/01/08 01:26:05;;;;;;;6.97;4.95;;;2.90;99.90;;;;;;5053850;28;20067;-53
2022/01/08 01:29:15;;;;;;;6.38;4.80;;;2.90;99.90;;;;;;5054694;28;20067;-52
2022/01/08 01:41:22;;;;;;;6.22;4.40;;;2.90;99.90;;;;;;5054291;28;20040;-53
2022/01/08 01:47:04;;;;;;;4.88;3.92;;;2.90;99.90;;;;;;5053506;28;20512;-53
2022/01/08 01:49:48;;;;;;;4.90;4.25;;;2.90;99.90;;;;;;5052313;28;20457;-53
2022/01/08 01:52:34;;;;;;;5.63;4.45;;;2.90;99.90;;;;;;5054374;28;20060;-52
2022/01/08 01:55:18;;;;;;;6.63;4.65;;;2.80;99.90;;;;;;5054694;28;20032;-54
2022/01/08 01:58:05;;;;;;;5.18;4.20;;;3.00;99.90;;;;;;5054619;28;20151;-50
2022/01/08 02:00:50;;;;;;;6.18;4.32;;;2.90;99.90;;;;;;5054197;28;20043;-50
2022/01/08 02:03:35;;;;;;;5.05;4.55;;;2.90;99.90;;;;;;5053803;28;20554;-51
2022/01/08 02:06:20;;;;;;;5.07;4.57;;;2.80;99.90;;;;;;5054309;28;20094;-50
2022/01/08 02:09:04;;;;;;;4.22;3.67;;;2.90;99.90;;;;;;5045095;28;20039;-52
2022/01/08 02:12:02;;;;;;;4.50;3.80;;;2.90;99.90;;;;;;5051518;28;20111;-50
2022/01/08 02:14:46;;;;;;;6.28;4.25;;;2.90;99.90;;;;;;5044438;28;20599;-48
2022/01/08 02:17:30;;;;;;;5.07;4.25;;;2.90;99.90;;;;;;5053238;28;20117;-53
2022/01/08 02:20:14;;;;;;;4.33;3.83;;;3.00;99.90;;;;;;5018145;28;1042627;-50
2022/01/08 02:22:59;;;;;;;4.60;3.85;;;3.00;99.90;;;;;;5054274;28;20387;-56
2022/01/08 02:25:44;;;;;;;5.22;3.97;;;2.90;99.90;;;;;;5052553;28;20685;-49
2022/01/08 02:28:28;;;;;;;4.53;4.00;;;2.90;99.90;;;;;;5042126;28;20411;-53
2022/01/08 02:31:23;;;;;;;5.68;3.80;;;3.00;99.90;;;;;;5055321;28;20158;-54
2022/01/08 02:34:08;;;;;;;5.32;4.28;;;3.00;99.90;;;;;;5047422;28;20036;-48
2022/01/08 02:36:54;;;;;;;5.93;4.10;;;2.90;99.90;;;;;;5043827;28;20068;-49
2022/01/08 02:39:40;;;;;;;5.85;3.80;;;2.90;99.90;;;;;;5052781;28;20506;-49
2022/01/08 02:42:28;;;;;;;4.57;4.00;;;2.80;99.90;;;;;;5045703;28;20068;-52
2022/01/08 02:45:13;;;;;;;4.97;4.32;;;2.90;99.90;;;;;;5054352;28;20039;-53
2022/01/08 02:47:57;;;;;;;5.28;4.50;;;3.00;99.90;;;;;;5038334;28;20518;-56
2022/01/08 02:50:41;;;;;;;4.45;3.85;;;2.90;99.90;;;;;;5053330;28;20031;-53
2022/01/08 02:53:25;;;;;;;4.57;3.65;;;2.90;99.90;;;;;;5054585;28;20124;-48
2022/01/08 02:56:09;;;;;;;4.72;3.70;;;2.90;99.90;;;;;;5039612;28;20036;-50
2022/01/08 02:58:53;;;;;;;4.65;4.22;;;3.00;99.90;;;;;;5053483;28;20036;-48
2022/01/08 03:01:38;;;;;;;5.38;3.72;;;3.00;99.90;;;;;;5052710;28;20391;-52
2022/01/08 03:04:22;;;;;;;4.45;3.83;;;3.00;99.90;;;;;;5033465;28;20115;-51
2022/01/08 03:07:06;;;;;;;4.57;3.63;;;2.90;99.90;;;;;;5046682;28;21693;-47
2022/01/08 03:09:57;;;;;;;4.18;3.60;;;3.00;99.90;;;;;;5053634;28;20028;-50
2022/01/08 03:12:41;;;;;;;4.35;3.70;;;2.90;99.90;;;;;;5054055;28;20507;-51
2022/01/08 03:15:26;;;;;;;7.40;4.28;;;2.90;99.90;;;;;;5052732;28;20043;-50
2022/01/08 03:18:11;;;;;;;6.13;4.13;;;2.90;99.90;;;;;;5053118;28;20035;-47
2022/01/08 03:21:13;;;;;;;4.43;3.78;;;2.90;99.90;;;;;;5053752;28;20060;-48
2022/01/08 03:24:01;;;;;;;5.40;3.90;;;3.00;99.90;;;;;;5034980;28;20455;-48
2022/01/08 03:26:45;;;;;;;4.60;4.15;;;2.90;99.90;;;;;;5042292;28;20036;-51
2022/01/08 03:29:29;;;;;;;6.88;4.30;;;2.90;99.90;;;;;;5054183;28;20075;-53
2022/01/08 03:32:14;;;;;;;7.13;5.55;;;2.80;99.90;;;;;;5054063;28;20120;-57
2022/01/08 03:34:58;;;;;;;4.87;4.00;;;2.80;99.90;;;;;;5055359;28;20058;-52
2022/01/08 03:37:42;;;;;;;4.95;4.30;;;2.80;99.90;;;;;;5053596;28;20035;-48
2022/01/08 03:40:26;;;;;;;5.18;4.50;;;2.70;99.90;;;;;;5045171;28;20090;-53
2022/01/08 03:43:11;;;;;;;4.40;3.67;;;2.80;99.90;;;;;;5053686;28;20051;-52
2022/01/08 03:45:55;;;;;;;4.93;3.63;;;2.80;99.90;;;;;;5053525;28;20094;-53
2022/01/08 03:48:47;;;;;;;4.40;3.70;;;2.80;99.90;;;;;;5053987;28;20088;-53
2022/01/08 03:51:32;;;;;;;3.83;3.22;;;2.80;99.90;;;;;;5053466;28;20475;-50
2022/01/08 03:54:16;;;;;;;5.68;3.70;;;2.80;99.90;;;;;;5053856;28;20083;-49
2022/01/08 03:57:00;;;;;;;4.00;3.60;;;2.90;99.90;;;;;;5052775;28;20055;-50
2022/01/08 03:59:44;;;;;;;4.57;4.13;;;2.90;99.90;;;;;;5053342;28;20040;-48
2022/01/08 04:02:28;;;;;;;4.57;3.50;;;2.80;99.90;;;;;;5053081;28;20051;-48
2022/01/08 04:05:12;;;;;;;3.90;3.40;;;2.80;99.90;;;;;;5052804;28;20040;-49
2022/01/08 04:07:56;;;;;;;4.50;3.50;;;2.80;99.90;;;;;;5053265;28;20154;-49
2022/01/08 04:10:41;;;;;;;4.18;3.70;;;2.80;99.90;;;;;;5052605;28;20117;-50
2022/01/08 04:13:31;;;;;;;6.05;3.75;;;2.90;99.90;;;;;;5053768;28;20036;-50
2022/01/08 04:16:20;;;;;;;4.80;3.92;;;3.00;99.90;;;;;;5053876;28;20080;-52
2022/01/08 04:19:04;;;;;;;4.55;3.60;;;3.00;99.90;;;;;;5053479;28;20044;-50
2022/01/08 04:22:09;;;;;;;5.05;3.83;;;3.00;99.90;;;;;;5053917;28;20420;-50
2022/01/08 04:24:55;;;;;;;4.22;3.83;;;3.00;99.90;;;;;;5053248;28;20040;-50
2022/01/08 04:27:39;;;;;;;7.65;3.95;;;2.80;99.90;;;;;;5052866;28;20511;-50
2022/01/08 04:30:23;;;;;;;5.15;3.70;;;2.90;99.90;;;;;;5052991;28;20036;-51
2022/01/08 04:33:08;;;;;;;4.38;3.58;;;3.00;99.90;;;;;;5053634;28;20044;-53
2022/01/08 04:35:52;;;;;;;5.18;4.60;;;3.00;99.90;;;;;;5053092;28;20052;-49
2022/01/08 04:38:37;;;;;;;5.45;4.53;;;2.90;99.90;;;;;;5048183;28;20048;-50
2022/01/08 04:41:21;;;;;;;4.68;3.90;;;2.90;99.90;;;;;;5044571;28;20089;-53
2022/01/08 04:44:07;;;;;;;4.70;4.05;;;3.00;99.90;;;;;;5047008;28;20250;-48
2022/01/08 04:46:51;;;;;;;5.47;4.25;;;3.00;99.90;;;;;;5033431;28;20041;-51
2022/01/08 04:49:35;;;;;;;4.53;4.13;;;2.80;99.90;;;;;;5044439;28;20140;-52
2022/01/08 04:52:19;;;;;;;6.30;4.05;;;2.80;99.90;;;;;;5053251;28;20105;-49
2022/01/08 04:55:03;;;;;;;4.20;3.75;;;2.90;99.90;;;;;;5052524;28;20028;-52
2022/01/08 04:57:48;;;;;;;7.32;4.10;;;2.90;99.90;;;;;;5052611;28;20089;-49
2022/01/08 05:00:33;;;;;;;5.05;4.00;;;2.90;99.90;;;;;;5052796;28;20071;-50
2022/01/08 05:03:17;;;;;;;4.68;3.58;;;3.00;99.90;;;;;;5051904;28;20114;-50
2022/01/08 05:06:01;;;;;;;8.65;5.38;;;3.00;99.90;;;;;;5033498;28;20048;-49
2022/01/08 05:08:45;;;;;;;13.47;8.03;;;3.10;99.90;;;;;;5048831;28;20047;-51
2022/01/08 05:11:30;;;;;;;5.53;4.60;;;3.10;99.90;;;;;;5051404;28;20249;-48
2022/01/08 05:14:15;;;;;;;;;;;3.10;99.90;;;;;;5056233;28;20158;-50
2022/01/08 05:17:01;;;;;;;4.47;3.83;;;3.10;99.90;;;;;;5056858;28;20311;-47
2022/01/08 05:19:49;;;;;;;5.40;4.00;;;3.10;99.90;;;;;;5056056;28;20087;-48
2022/01/08 05:22:50;;;;;;;4.88;3.72;;;3.10;99.90;;;;;;5055932;28;20040;-48
2022/01/08 05:25:35;;;;;;;4.75;3.95;;;3.10;99.90;;;;;;5056233;28;20028;-53
2022/01/08 05:28:19;;;;;;;5.57;4.07;;;3.00;99.90;;;;;;5057160;28;20158;-51
2022/01/08 05:31:03;;;;;;;4.35;3.95;;;3.00;99.90;;;;;;5056112;28;20037;-50
2022/01/08 05:33:48;;;;;;;4.88;4.35;;;3.00;99.90;;;;;;5056230;28;20095;-47
2022/01/08 05:36:32;;;;;;;;;;;2.90;99.90;;;;;;5055441;28;20024;-48
2022/01/08 05:39:16;;;;;;;4.88;4.18;;;2.90;99.90;;;;;;5055935;28;19963;-48
2022/01/08 05:42:00;;;;;;;5.13;4.30;;;3.00;99.90;;;;;;5055593;28;20539;-50
2022/01/08 05:44:45;;;;;;;5.77;4.30;;;3.00;99.90;;;;;;5055817;28;20063;-53
2022/01/08 05:47:31;;;;;;;5.10;4.00;;;2.90;99.90;;;;;;5055900;28;20116;-52
2022/01/08 05:50:15;;;;;;;5.63;4.20;;;3.00;99.90;;;;;;5056170;28;20128;-50
2022/01/08 05:52:59;;;;;;;5.32;4.30;;;3.00;99.90;;;;;;5055346;28;20227;-52
2022/01/08 05:55:44;;;;;;;4.60;4.10;;;3.00;99.90;;;;;;5055798;28;20040;-48
2022/01/08 05:58:28;;;;;;;5.53;4.28;;;2.90;99.90;;;;;;5055486;28;20048;-49
2022/01/08 06:01:12;;;;;;;4.57;4.00;;;2.90;99.90;;;;;;5055280;28;20067;-52
2022/01/08 06:03:56;;;;;;;5.07;4.40;;;2.90;99.90;;;;;;5055433;28;20036;-54
2022/01/08 06:06:41;;;;;;;5.82;4.63;;;3.00;99.90;;;;;;5055178;28;20412;-55
2022/01/08 06:09:25;;;;;;;5.63;3.90;;;3.00;99.90;;;;;;5054971;28;20083;-56
2022/01/08 06:12:09;;;;;;;7.93;5.32;;;3.00;99.90;;;;;;5055261;28;20499;-53
2022/01/08 06:14:53;;;;;;;6.03;4.10;;;3.10;99.90;;;;;;5054619;28;20074;-51
2022/01/08 06:17:37;;;;;;;5.05;4.40;;;3.00;99.90;;;;;;5055046;28;20036;-54
2022/01/08 06:20:22;;;;;;;5.00;4.50;;;3.00;99.90;;;;;;5033975;28;20047;-55
2022/01/08 06:23:06;;;;;;;5.03;4.20;;;3.00;99.90;;;;;;5046937;28;20604;-54
2022/01/08 06:25:51;;;;;;;5.80;4.43;;;3.00;99.90;;;;;;5054700;28;20068;-53
2022/01/08 06:28:35;;;;;;;5.00;4.13;;;2.90;99.90;;;;;;5054738;28;20051;-55
2022/01/08 06:31:20;;;;;;;;;;;2.90;99.90;;;;;;5055973;28;20043;-53
2022/01/08 06:34:05;;;;;;;5.50;4.30;;;2.90;99.90;;;;;;5055576;28;19955;-55
2022/01/08 06:36:49;;;;;;;4.85;4.35;;;2.90;99.90;;;;;;5055116;28;20075;-52
2022/01/08 06:39:33;;;;;;;6.20;4.63;;;2.80;99.90;;;;;;5035120;28;20515;-55
2022/01/08 06:42:17;;;;;;;6.28;4.80;;;2.80;99.90;;;;;;5041635;28;20036;-57
2022/01/08 06:45:02;;;;;;;5.28;4.40;;;2.80;99.90;;;;;;5055149;28;20060;-56
2022/01/08 06:47:46;;;;;;;5.38;4.50;;;2.90;99.90;;;;;;5054373;28;20040;-56
2022/01/08 06:50:30;;;;;;;7.22;5.00;;;2.90;99.90;;;;;;5053823;28;20036;-54
2022/01/08 06:53:14;;;;;;;5.22;4.72;;;2.90;99.90;;;;;;5055213;28;20078;-55
2022/01/08 06:55:58;;;;;;;6.25;4.60;;;2.90;99.90;;;;;;5054725;28;20055;-55
2022/01/08 06:58:42;;;;;;;5.70;4.53;;;2.90;99.90;;;;;;5053931;28;20438;-55
2022/01/08 07:01:26;;;;;;;6.90;5.10;;;3.00;99.90;;;;;;5054040;28;20036;-53
2022/01/08 07:04:10;;;;;;;5.05;4.50;;;3.00;99.90;;;;;;5052912;28;20143;-53
2022/01/08 07:06:54;;;;;;;4.65;4.20;;;3.00;99.90;;;;;;5054237;28;20037;-53
2022/01/08 07:09:38;;;;;;;5.45;4.53;;;3.00;99.90;;;;;;5054495;28;20036;-53
2022/01/08 07:12:22;;;;;;;6.07;4.88;;;3.00;99.90;;;;;;5053864;28;20036;-53
2022/01/08 07:15:07;;;;;;;5.97;4.57;;;2.90;99.90;;;;;;5053757;28;20099;-54
2022/01/08 07:17:51;;;;;;;7.22;5.30;;;3.00;99.90;;;;;;5054203;28;20274;-57
2022/01/08 07:20:35;;;;;;;6.05;5.00;;;2.80;99.90;;;;;;5053954;28;20522;-52
2022/01/08 07:23:19;;;;;;;5.47;4.75;;;2.80;99.90;;;;;;5053865;28;20032;-55
2022/01/08 07:26:03;;;;;;;6.60;4.90;;;2.90;99.90;;;;;;5053336;28;20500;-55
2022/01/08 07:28:47;;;;;;;5.47;4.85;;;2.90;99.90;;;;;;5053629;28;20067;-55
2022/01/08 07:31:31;;;;;;;6.10;4.93;;;2.90;99.90;;;;;;5052600;28;20090;-56
2022/01/08 07:34:15;;;;;;;5.68;5.03;;;2.90;99.90;;;;;;5053489;28;20039;-53
2022/01/08 07:36:59;;;;;;;8.25;5.35;;;3.00;99.90;;;;;;5052848;28;20036;-53
2022/01/08 07:39:43;;;;;;;6.15;5.32;;;3.10;99.90;;;;;;5053285;28;20067;-54
2022/01/08 07:42:27;;;;;;;5.90;5.30;;;3.10;99.90;;;;;;5053098;28;20044;-56
2022/01/08 07:45:12;;;;;;;6.68;5.57;;;3.00;99.90;;;;;;5053050;28;20040;-57
2022/01/08 07:47:56;;;;;;;7.82;6.03;;;3.00;99.90;;;;;;5053029;28;20035;-57
2022/01/08 07:50:41;;;;;;;8.13;6.50;;;3.10;99.90;;;;;;5044957;28;20075;-52
2022/01/08 07:53:25;;;;;;;7.47;6.50;;;3.10;99.90;;;;;;5053980;28;20040;-57
2022/01/08 07:56:10;;;;;;;7.68;5.90;;;3.00;99.90;;;;;;5054011;28;20055;-55
2022/01/08 07:58:54;;;;;;;7.18;6.25;;;3.10;99.90;;;;;;5053641;28;20033;-55
2022/01/08 08:01:38;;;;;;;6.85;5.88;;;3.10;99.90;;;;;;5053203;28;20036;-53
2022/01/08 08:04:22;;;;;;;6.72;6.03;;;3.10;99.90;;;;;;5052853;28;20040;-57
2022/01/08 08:07:06;;;;;;;6.70;6.00;;;3.10;99.90;;;;;;5053280;28;20539;-55
2022/01/08 08:09:50;;;;;;;7.55;6.30;;;3.10;99.90;;;;;;5052268;28;20518;-56
2022/01/08 08:12:34;;;;;;;8.30;6.18;;;3.10;99.90;;;;;;5053039;28;20114;-58
2022/01/08 08:15:20;;;;;;;7.50;6.28;;;3.10;99.90;;;;;;5053026;28;20098;-57
2022/01/08 08:18:04;;;;;;;;;;;3.10;99.90;;;;;;5052872;28;20094;-56
2022/01/08 08:20:48;;;;;;;6.63;5.90;;;3.00;99.90;;;;;;5047392;28;20337;-56
2022/01/08 08:23:32;;;;;;;7.03;5.80;;;3.00;99.90;;;;;;5049012;28;20100;-55
2022/01/08 08:26:16;;;;;;;6.25;5.63;;;3.10;99.90;;;;;;5051654;28;20040;-57
2022/01/08 08:29:01;;;;;;;9.23;6.13;;;3.10;99.90;;;;;;5051274;28;20106;-56
2022/01/08 08:31:45;;;;;;;7.72;5.88;;;3.20;99.90;;;;;;5052260;28;20036;-56
2022/01/08 08:34:29;;;;;;;6.63;5.93;;;3.30;99.90;;;;;;5052766;28;20519;-57
2022/01/08 08:37:14;;;;;;;8.05;6.38;;;3.20;99.90;;;;;;5044579;28;20574;-58
2022/01/08 08:39:58;;;;;;;7.78;5.97;;;3.20;99.90;;;;;;5052601;28;20115;-58
2022/01/08 08:42:42;;;;;;;7.03;6.30;;;3.20;99.90;;;;;;5037968;28;20113;-55
2022/01/08 08:45:26;;;;;;;7.60;6.45;;;3.20;99.90;;;;;;5051918;28;20099;-55
2022/01/08 08:48:10;;;;;;;9.57;7.05;;;3.30;99.90;;;;;;5051266;28;20032;-53
2022/01/08 08:50:55;;;;;;;7.30;6.60;;;3.30;99.90;;;;;;5056104;28;20048;-52
2022/01/08 08:53:39;;;;;;;7.93;6.45;;;3.30;99.90;;;;;;5053378;28;20130;-56
2022/01/08 08:56:23;;;;;;;9.45;7.35;;;3.30;99.90;;;;;;5055737;28;20116;-56
2022/01/08 08:59:08;;;;;;;7.38;6.45;;;3.30;99.90;;;;;;5056162;28;20040;-54
2022/01/08 09:01:54;;;;;;;6.95;6.25;;;3.30;99.90;;;;;;5055752;28;20051;-57
2022/01/08 09:04:42;;;;;;;9.55;6.78;;;3.30;99.90;;;;;;5054804;28;20028;-58
2022/01/08 09:07:26;;;;;;;11.32;8.55;;;3.40;99.90;;;;;;5051592;28;20083;-56
2022/01/08 09:10:12;;;;;;;8.27;6.77;;;3.40;99.90;;;;;;5054465;28;20032;-55
2022/01/08 09:12:56;;;;;;;8.43;7.40;;;3.40;99.90;;;;;;5052624;28;20032;-56
2022/01/08 09:15:41;;;;;;;10.27;7.32;;;3.40;99.90;;;;;;5054421;28;20068;-55
2022/01/08 09:18:26;;;;;;;10.65;7.82;;;3.40;99.90;;;;;;5054362;28;20036;-54
2022/01/08 09:21:11;;;;;;;8.93;6.80;;;3.30;99.90;;;;;;5054656;28;20055;-58
2022/01/08 09:23:55;;;;;;;;;;;3.30;99.90;;;;;;5052583;28;20079;-52
2022/01/08 09:26:40;;;;;;;8.23;6.97;;;3.40;99.90;;;;;;5054113;28;19966;-56
2022/01/08 09:29:24;;;;;;;8.75;7.20;;;3.40;99.90;;;;;;5053167;28;20050;-57
2022/01/08 09:32:09;;;;;;;9.00;7.07;;;3.50;99.90;;;;;;5055510;28;20036;-53
2022/01/08 09:34:53;;;;;;;7.53;6.72;;;3.50;99.90;;;;;;5054144;28;20194;-56
2022/01/08 09:37:39;;;;;;;8.50;7.60;;;3.50;99.90;;;;;;5055605;28;20077;-54
2022/01/08 09:40:23;;;;;;;8.90;7.70;;;3.50;99.90;;;;;;5056701;28;20562;-55
2022/01/08 09:43:07;;;;;;;9.75;7.28;;;3.60;99.90;;;;;;5052729;28;20392;-56
2022/01/08 09:45:52;;;;;;;9.52;7.30;;;3.60;99.90;;;;;;5053775;28;20087;-55
2022/01/08 09:48:36;;;;;;;10.35;7.90;;;3.70;99.90;;;;;;5054518;28;20036;-57
2022/01/08 09:51:20;;;;;;;8.60;7.10;;;3.70;99.90;;;;;;5055012;28;20550;-52
2022/01/08 09:54:05;;;;;;;8.50;6.93;;;3.60;99.90;;;;;;5052884;28;20040;-53
2022/01/08 09:56:50;;;;;;;11.00;7.47;;;3.60;99.90;;;;;;5053398;28;20460;-54
2022/01/08 09:59:34;;;;;;;9.18;7.47;;;3.60;99.90;;;;;;5060602;28;20416;-54
2022/01/08 10:02:22;;;;;;;9.07;7.20;;;3.60;99.90;;;;;;5054888;28;20063;-55
2022/01/08 10:05:09;;;;;;;8.43;7.07;;;3.40;99.90;;;;;;5054410;28;20116;-53
2022/01/08 10:07:59;;;;;;;9.20;7.35;;;3.40;99.90;;;;;;5054475;28;20032;-52
2022/01/08 10:11:01;;;;;;;9.40;7.47;;;3.50;99.90;;;;;;5052987;28;20549;-57
2022/01/08 10:13:47;;;;;;;9.50;7.72;;;3.50;99.90;;;;;;5054482;28;20035;-55
2022/01/08 10:19:55;;;;;;;9.15;7.53;;;3.60;99.90;;;;;;5038249;28;20060;-56
2022/01/08 10:22:40;;;;;;;9.85;7.63;;;3.60;99.90;;;;;;5038577;28;20440;-58
2022/01/08 10:25:24;;;;;;;10.70;8.23;;;3.60;99.90;;;;;;5063193;28;20124;-57
2022/01/08 10:28:08;;;;;;;11.88;8.63;;;3.50;99.90;;;;;;5060653;28;20438;-56
2022/01/08 10:31:04;;;;;;;11.07;7.75;;;3.40;99.90;;;;;;5058229;28;20447;-54
2022/01/08 10:34:00;;;;;;;11.23;8.40;;;3.40;99.90;;;;;;5056545;28;20032;-55
2022/01/08 10:36:55;;;;;;;9.73;7.60;;;3.40;99.90;;;;;;5049584;28;20060;-54
2022/01/08 10:39:40;;;;;;;9.68;8.00;;;3.60;99.90;;;;;;5050705;28;20087;-55
2022/01/08 10:42:24;;;;;;;11.60;8.63;;;3.70;99.90;;;;;;5053654;28;20043;-57
2022/01/08 10:45:14;;;;;;;11.43;8.75;;;3.70;99.90;;;;;;5050773;28;20132;-55
2022/01/08 10:48:05;;;;;;;9.30;8.00;;;3.80;99.90;;;;;;5051111;28;20130;-68
2022/01/08 10:50:49;;;;;;;10.90;8.85;;;3.70;99.90;;;;;;5052991;28;20039;-57
2022/01/08 10:53:53;;;;;;;10.85;8.57;;;3.80;99.90;;;;;;5054221;28;20044;-56
2022/01/08 10:56:45;;;;;;;10.70;8.02;;;3.80;99.90;;;;;;5053485;28;20048;-58
2022/01/08 10:59:31;;;;;;;13.00;8.73;;;3.80;99.90;;;;;;5054464;28;20079;-54
2022/01/08 11:02:15;;;;;;;13.65;9.75;;;3.70;99.90;;;;;;5053896;28;20051;-59
2022/01/08 11:05:04;;;;;;;11.48;9.50;;;3.80;99.90;;;;;;5050758;28;20036;-57
2022/01/08 11:07:48;;;;;;;13.05;9.77;;;4.00;99.90;;;;;;5052661;28;20054;-57
2022/01/08 11:10:32;;;;;;;14.73;10.37;;;4.10;99.90;;;;;;5051993;28;20032;-56
2022/01/08 11:13:18;;;;;;;12.45;9.45;;;3.90;99.90;;;;;;5049818;28;20495;-58
2022/01/08 11:16:03;;;;;;;15.25;9.70;;;4.00;99.90;;;;;;5052834;28;20491;-57
2022/01/08 11:18:47;;;;;;;13.80;10.48;;;4.00;99.90;;;;;;5050439;28;20043;-56
2022/01/08 11:21:34;;;;;;;13.88;9.65;;;4.10;99.90;;;;;;5052161;28;20052;-58
2022/01/08 11:24:19;;;;;;;12.73;9.88;;;4.20;99.90;;;;;;5052282;28;20074;-56
2022/01/08 11:27:07;;;;;;;17.73;10.55;;;4.00;99.90;;;;;;5054720;28;20082;-57
2022/01/08 11:30:08;;;;;;;15.88;11.48;;;3.90;99.90;;;;;;5053575;28;20126;-57
2022/01/08 11:32:57;;;;;;;15.50;11.75;;;3.80;99.90;;;;;;5053716;28;20120;-57
2022/01/08 11:35:43;;;;;;;16.23;10.88;;;3.80;99.90;;;;;;5053565;28;20032;-56
2022/01/08 11:38:28;;;;;;;14.77;10.82;;;3.90;99.90;;;;;;5053331;28;20126;-57
2022/01/08 11:41:12;;;;;;;;;;;4.00;99.90;;;;;;5055225;28;20039;-56
2022/01/08 11:43:56;;;;;;;13.70;10.60;;;4.20;99.90;;;;;;5046204;28;19935;-58
2022/01/08 11:46:43;;;;;;;15.83;10.27;;;4.20;99.90;;;;;;5053617;28;20043;-56
2022/01/08 11:49:27;;;;;;;14.15;11.43;;;4.30;99.90;;;;;;5051437;28;20060;-53
2022/01/08 11:52:15;;;;;;;14.02;10.73;;;4.30;99.90;;;;;;5049882;28;20515;-58
2022/01/08 11:55:00;;;;;;;15.98;10.68;;;4.30;99.90;;;;;;5050637;28;20055;-55
2022/01/08 11:57:44;;;;;;;16.83;10.52;;;4.30;99.90;;;;;;5050460;28;20028;-57
2022/01/08 12:00:58;;;;;;;17.00;12.05;;;4.40;99.90;;;;;;5051074;28;20546;-60
2022/01/08 12:03:53;;;;;;;17.40;11.15;;;4.30;99.90;;;;;;5050187;28;20431;-58
2022/01/08 12:06:39;;;;;;;13.93;11.07;;;4.10;99.90;;;;;;5048889;28;20055;-56
2022/01/08 12:09:25;;;;;;;13.70;10.63;;;4.30;99.90;;;;;;5038024;28;20048;-60
2022/01/08 12:12:09;;;;;;;15.00;10.85;;;4.40;99.90;;;;;;5051434;28;20500;-55
2022/01/08 12:14:53;;;;;;;18.55;11.48;;;4.30;99.90;;;;;;5040101;28;20539;-57
2022/01/08 12:17:53;;;;;;;15.55;10.60;;;4.30;99.90;;;;;;5051499;28;20056;-56
2022/01/08 12:20:44;;;;;;;14.50;10.32;;;4.20;99.90;;;;;;5049720;28;20098;-54
2022/01/08 12:23:31;;;;;;;15.60;10.77;;;4.20;99.90;;;;;;5046356;28;20056;-55
2022/01/08 12:26:16;;;;;;;15.52;9.50;;;4.30;99.90;;;;;;5055380;28;20101;-55
2022/01/08 12:29:02;;;;;;;15.38;10.65;;;4.40;99.90;;;;;;5055412;28;20567;-59
2022/01/08 12:31:49;;;;;;;17.50;10.70;;;4.40;99.90;;;;;;5055354;28;20063;-56
2022/01/08 12:34:42;;;;;;;14.75;10.20;;;4.40;99.90;;;;;;5055168;28;20068;-58
2022/01/08 12:37:39;;;;;;;18.45;10.65;;;4.50;99.90;;;;;;5055550;28;20028;-58
2022/01/08 12:40:50;;;;;;;13.73;10.85;;;4.50;99.90;;;;;;5055005;28;20044;-59
2022/01/08 12:43:36;;;;;;;15.02;10.50;;;4.50;99.90;;;;;;5054953;28;20051;-57
2022/01/08 12:46:25;;;;;;;15.27;10.25;;;4.60;99.90;;;;;;5054168;28;20151;-58
2022/01/08 12:49:14;;;;;;;18.13;10.25;;;4.60;99.90;;;;;;5042246;28;20403;-56
2022/01/08 12:51:59;;;;;;;16.92;10.63;;;4.70;99.90;;;;;;5055334;28;20085;-57
2022/01/08 12:54:44;;;;;;;14.57;10.50;;;4.80;99.90;;;;;;5055114;28;20036;-60
2022/01/08 12:57:31;;;;;;;15.55;10.15;;;4.60;99.90;;;;;;5040166;28;20071;-58
2022/01/08 13:00:15;;;;;;;13.35;9.98;;;4.60;99.90;;;;;;5054271;28;20067;-54
2022/01/08 13:02:59;;;;;;;12.80;9.80;;;4.80;99.90;;;;;;5055218;28;20507;-57
2022/01/08 13:05:43;;;;;;;16.08;9.90;;;4.80;99.90;;;;;;5039698;28;20146;-57
2022/01/08 13:08:33;;;;;;;10.37;8.67;;;4.90;99.90;;;;;;5055012;28;20040;-59
2022/01/08 13:11:24;;;;;;;14.13;8.80;;;4.90;99.90;;;;;;5054539;28;20063;-58
2022/01/08 13:14:14;;;;;;;14.57;8.43;;;4.90;99.90;;;;;;5053107;28;20032;-58
2022/01/08 13:16:59;;;;;;;13.35;7.95;;;4.70;99.90;;;;;;5047772;28;20108;-59
2022/01/08 13:19:43;;;;;;;13.63;8.60;;;4.80;99.90;;;;;;5054427;28;20055;-55
2022/01/08 13:22:27;;;;;;;8.85;7.05;;;4.90;99.90;;;;;;5063241;28;20133;-57
2022/01/08 13:25:11;;;;;;;13.85;7.93;;;4.90;99.90;;;;;;5054518;28;20158;-58
2022/01/08 13:28:00;;;;;;;10.43;6.57;;;5.10;99.90;;;;;;5054506;28;20040;-57
2022/01/08 13:30:51;;;;;;;16.15;7.13;;;5.20;99.10;;;;;;5053209;28;20439;-53
2022/01/08 13:33:37;;;;;;;13.85;6.82;;;5.20;99.20;;;;;;5053320;28;20086;-56
2022/01/08 13:36:22;;;;;;;11.38;6.57;;;5.20;99.10;;;;;;5051772;28;20043;-58
2022/01/08 13:39:08;;;;;;;12.48;7.15;;;5.10;99.30;;;;;;5050007;28;20120;-59
2022/01/08 13:42:14;;;;;;;11.60;7.70;;;5.00;99.80;;;;;;5046014;28;20043;-57
2022/01/08 13:45:10;;;;;;;15.15;7.97;;;5.20;99.70;;;;;;5051281;28;20511;-59
2022/01/08 13:48:01;;;;;;;13.32;8.88;;;5.10;99.90;;;;;;5054631;28;20074;-60
2022/01/08 13:50:53;;;;;;;15.32;8.35;;;5.20;99.90;;;;;;5050030;28;20443;-57
2022/01/08 13:53:37;;;;;;;16.17;9.40;;;5.30;99.90;;;;;;5052111;28;20082;-60
2022/01/08 13:56:23;;;;;;;14.40;9.13;;;5.30;99.90;;;;;;5052713;28;20538;-58
2022/01/08 13:59:10;;;;;;;17.50;9.98;;;5.50;99.90;;;;;;5052708;28;20059;-58
2022/01/08 14:01:55;;;;;;;13.27;9.80;;;5.30;99.90;;;;;;5053915;28;20090;-59
2022/01/08 14:04:40;;;;;;;15.15;9.40;;;5.40;99.90;;;;;;5053963;28;20072;-55
2022/01/08 14:07:38;;;;;;;11.75;8.80;;;5.60;99.90;;;;;;5053784;28;20091;-57
2022/01/08 14:10:23;;;;;;;13.40;8.80;;;6.20;99.50;;;;;;5052491;28;20044;-60
2022/01/08 14:13:10;;;;;;;17.92;8.93;;;6.50;99.30;;;;;;5053250;28;20140;-59
2022/01/08 14:16:03;;;;;;;13.65;8.68;;;6.90;98.90;;;;;;5054376;28;20091;-58
2022/01/08 14:18:49;;;;;;;14.45;9.20;;;6.90;98.50;;;;;;5053898;28;20063;-56
2022/01/08 14:21:34;;;;;;;22.30;12.13;;;7.30;98.30;;;;;;5053547;28;20055;-56
2022/01/08 14:24:23;;;;;;;16.85;9.02;;;7.60;97.60;;;;;;5051447;28;20063;-57
2022/01/08 14:27:13;;;;;;;13.73;7.25;;;7.50;96.90;;;;;;5051098;28;20063;-57
2022/01/08 14:30:04;;;;;;;13.32;7.55;;;7.10;96.90;;;;;;5051766;28;20039;-56
2022/01/08 14:32:48;;;;;;;13.32;8.48;;;6.40;97.70;;;;;;5044809;28;20036;-55
2022/01/08 14:35:32;;;;;;;13.63;9.15;;;5.70;99.30;;;;;;5052574;28;20500;-59
2022/01/08 14:38:16;;;;;;;16.23;9.63;;;5.10;99.90;;;;;;5050601;28;20610;-58
2022/01/08 14:41:00;;;;;;;12.35;8.48;;;4.80;99.90;;;;;;5052278;28;20084;-56
2022/01/08 14:43:44;;;;;;;14.60;8.55;;;4.40;99.90;;;;;;5052975;28;20467;-54
2022/01/08 14:46:28;;;;;;;13.15;7.97;;;4.30;99.90;;;;;;5051671;28;20415;-57
2022/01/08 14:49:13;;;;;;;18.45;7.47;;;4.20;99.90;;;;;;5051123;28;20041;-56